Time;durP1;ratioP1;P1;durP2;ratioP2;P2;SDS_P1;SDS_P2;PMS_P1;PMS_P2;Temp;Humidity;BMP_temperature;BMP_pressure;BME280_temperature;BME280_humidity;BME280_pressure;Samples;Min_cycle;Max_cycle;Signal;HPM_P1;HPM_P2
2022/07/08 00:00:17;;;;;;;4.57;2.07;;;18.90;89.60;;;;;;4952340;28;20489;-88
2022/07/08 00:02:44;;;;;;;8.63;2.87;;;18.80;89.90;;;;;;4936238;28;20465;-87
2022/07/08 00:05:10;;;;;;;4.27;2.73;;;18.80;89.70;;;;;;4958834;28;20466;-86
2022/07/08 00:07:45;;;;;;;5.13;2.40;;;18.80;89.70;;;;;;4960198;29;20738;-87
2022/07/08 00:10:12;;;;;;;5.63;2.23;;;18.80;89.40;;;;;;4951250;29;20447;-87
2022/07/08 00:12:39;;;;;;;7.20;2.23;;;18.80;89.30;;;;;;4938345;29;20450;-88
2022/07/08 00:15:09;;;;;;;6.20;2.33;;;18.80;89.10;;;;;;4936049;29;20454;-88
2022/07/08 00:17:36;;;;;;;5.70;2.93;;;18.80;88.60;;;;;;4936542;29;20454;-88
2022/07/08 00:20:03;;;;;;;4.90;2.47;;;18.80;88.10;;;;;;4938217;29;20457;-88
2022/07/08 00:22:30;;;;;;;4.10;2.37;;;18.80;88.00;;;;;;4940428;28;20970;-89
2022/07/08 00:24:56;;;;;;;5.93;3.13;;;18.70;87.80;;;;;;4939910;29;20450;-88
2022/07/08 00:27:23;;;;;;;3.97;2.50;;;18.70;88.10;;;;;;4939362;29;20510;-89
2022/07/08 00:29:50;;;;;;;4.30;2.43;;;18.70;88.00;;;;;;4945477;29;20433;-87
2022/07/08 00:32:19;;;;;;;6.47;2.40;;;18.80;87.90;;;;;;4955555;28;20458;-89
2022/07/08 00:34:45;;;;;;;7.27;2.40;;;18.80;87.70;;;;;;4939111;29;20544;-88
2022/07/08 00:37:12;;;;;;;6.70;2.67;;;18.80;86.90;;;;;;4938755;28;20456;-88
2022/07/08 00:39:39;;;;;;;7.60;2.93;;;18.70;84.70;;;;;;4939281;29;20493;-88
2022/07/08 00:42:06;;;;;;;4.90;2.60;;;18.60;82.00;;;;;;4946617;28;20493;-89
2022/07/08 00:44:33;;;;;;;6.77;3.40;;;18.50;80.70;;;;;;4940297;29;20458;-89
2022/07/08 00:47:00;;;;;;;6.70;3.83;;;18.50;80.20;;;;;;4938610;29;20454;-88
2022/07/08 00:49:29;;;;;;;7.03;3.37;;;18.40;80.00;;;;;;4938756;29;20446;-88
2022/07/08 00:51:57;;;;;;;6.97;3.67;;;18.40;79.50;;;;;;4939792;29;20482;-88
2022/07/08 00:54:24;;;;;;;6.90;4.30;;;18.40;79.40;;;;;;4940192;29;20461;-88
2022/07/08 00:56:52;;;;;;;7.50;4.20;;;18.30;79.70;;;;;;4938865;29;20457;-88
2022/07/08 00:59:20;;;;;;;5.33;3.30;;;18.30;79.70;;;;;;4938537;29;20612;-88
2022/07/08 01:01:47;;;;;;;7.73;4.50;;;18.30;80.70;;;;;;4941741;29;20488;-88
2022/07/08 01:04:14;;;;;;;6.93;3.70;;;18.20;80.40;;;;;;4941220;29;20453;-88
2022/07/08 01:06:42;;;;;;;5.00;3.67;;;18.20;80.50;;;;;;4939622;29;20450;-88
2022/07/08 01:09:10;;;;;;;4.43;3.70;;;18.10;80.90;;;;;;4955631;29;20426;-86
2022/07/08 01:11:37;;;;;;;5.40;3.90;;;18.10;81.30;;;;;;4959030;29;20466;-84
2022/07/08 01:14:05;;;;;;;11.30;4.47;;;18.00;81.40;;;;;;4959342;29;20465;-83
2022/07/08 01:16:32;;;;;;;5.93;3.50;;;18.00;81.90;;;;;;4960361;29;20456;-84
2022/07/08 01:18:58;;;;;;;9.10;4.30;;;18.00;82.20;;;;;;4961265;29;20486;-83
2022/07/08 01:21:26;;;;;;;6.13;3.70;;;17.80;82.50;;;;;;4960332;29;20470;-83
2022/07/08 01:23:53;;;;;;;6.90;4.00;;;17.80;82.80;;;;;;4954901;29;20456;-83
2022/07/08 01:26:20;;;;;;;7.80;3.70;;;17.80;83.10;;;;;;4946537;29;20454;-84
2022/07/08 01:28:48;;;;;;;7.50;4.03;;;17.80;83.00;;;;;;4948262;28;20461;-84
2022/07/08 01:31:15;;;;;;;6.27;4.03;;;17.70;82.60;;;;;;4953635;28;20886;-83
2022/07/08 01:33:45;;;;;;;5.80;3.90;;;17.60;82.60;;;;;;4955312;29;20450;-84
2022/07/08 01:36:13;;;;;;;6.43;3.53;;;17.60;82.20;;;;;;4950996;28;20464;-84
2022/07/08 01:38:45;;;;;;;9.90;3.50;;;17.60;82.00;;;;;;4946888;28;20516;-84
2022/07/08 01:41:13;;;;;;;5.33;3.50;;;17.60;82.10;;;;;;4948889;28;20506;-84
2022/07/08 01:43:40;;;;;;;10.73;3.40;;;17.50;81.80;;;;;;4950948;28;20482;-83
2022/07/08 01:46:09;;;;;;;6.53;3.90;;;17.40;81.70;;;;;;4946164;29;20558;-83
2022/07/08 01:48:39;;;;;;;5.10;3.27;;;17.40;82.20;;;;;;4946840;28;20612;-83
2022/07/08 01:51:06;;;;;;;6.87;3.47;;;17.50;82.50;;;;;;4945720;29;21069;-84
2022/07/08 01:53:34;;;;;;;9.97;3.90;;;17.40;82.80;;;;;;4945832;28;20462;-83
2022/07/08 01:56:06;;;;;;;6.43;3.90;;;17.40;82.80;;;;;;4945298;28;20458;-84
2022/07/08 01:58:37;;;;;;;12.50;4.97;;;17.30;83.00;;;;;;4945487;28;20525;-83
2022/07/08 02:01:05;;;;;;;5.77;3.50;;;17.20;83.00;;;;;;4947497;29;20478;-83
2022/07/08 02:03:35;;;;;;;6.60;2.90;;;17.10;83.20;;;;;;4947367;29;20450;-84
2022/07/08 02:06:02;;;;;;;6.30;3.63;;;17.00;84.00;;;;;;4946346;28;20454;-83
2022/07/08 02:08:29;;;;;;;6.37;3.37;;;16.90;84.20;;;;;;4955064;29;20518;-84
2022/07/08 02:13:44;;;;;;;6.53;3.70;;;16.80;85.00;;;;;;4946829;29;21002;-84
2022/07/08 02:16:13;;;;;;;6.33;3.50;;;16.80;85.00;;;;;;4945627;28;20458;-84
2022/07/08 02:18:40;;;;;;;7.60;3.73;;;16.80;85.20;;;;;;4945034;28;20486;-84
2022/07/08 02:21:10;;;;;;;7.93;3.80;;;16.80;85.40;;;;;;4945514;28;20481;-84
2022/07/08 02:23:49;;;;;;;5.80;3.20;;;16.80;85.20;;;;;;4945352;28;20545;-84
2022/07/08 02:26:15;;;;;;;13.27;3.00;;;16.70;85.00;;;;;;4945895;28;20478;-84
2022/07/08 02:28:43;;;;;;;7.50;3.43;;;16.70;85.70;;;;;;4947319;29;20502;-84
2022/07/08 02:31:10;;;;;;;7.43;3.73;;;16.60;86.10;;;;;;4945778;29;20474;-84
2022/07/08 02:33:39;;;;;;;12.50;3.57;;;16.50;86.60;;;;;;4959657;28;20446;-83
2022/07/08 02:36:06;;;;;;;6.00;3.60;;;16.40;86.90;;;;;;4956496;28;20458;-84
2022/07/08 02:38:34;;;;;;;5.20;3.47;;;16.50;87.30;;;;;;4944440;29;20486;-84
2022/07/08 02:41:02;;;;;;;8.70;3.50;;;16.40;87.70;;;;;;4941945;28;20565;-84
2022/07/08 02:43:30;;;;;;;7.70;2.73;;;16.30;88.00;;;;;;4940126;29;20561;-84
2022/07/08 02:46:07;;;;;;;10.33;3.90;;;16.20;88.10;;;;;;4939373;29;20450;-84
2022/07/08 02:48:35;;;;;;;7.20;3.40;;;16.10;88.50;;;;;;4938971;29;20883;-84
2022/07/08 02:51:05;;;;;;;6.47;3.30;;;16.10;89.20;;;;;;4939508;28;20490;-84
2022/07/08 02:53:33;;;;;;;4.77;3.27;;;16.10;89.10;;;;;;4939246;29;20466;-84
2022/07/08 02:56:02;;;;;;;7.67;3.87;;;16.00;89.10;;;;;;4938826;28;20466;-84
2022/07/08 02:58:32;;;;;;;7.77;3.10;;;16.10;89.60;;;;;;4938550;28;20998;-84
2022/07/08 03:01:04;;;;;;;6.47;3.13;;;16.00;89.70;;;;;;4941798;29;20478;-84
2022/07/08 03:03:32;;;;;;;9.30;3.60;;;15.90;90.00;;;;;;4942230;29;21018;-84
2022/07/08 03:06:01;;;;;;;7.03;3.20;;;15.90;90.20;;;;;;4944955;28;20486;-84
2022/07/08 03:08:31;;;;;;;7.50;3.47;;;15.90;90.30;;;;;;4959619;28;20446;-83
2022/07/08 03:11:00;;;;;;;5.00;3.13;;;15.80;90.40;;;;;;4938790;28;20546;-83
2022/07/08 03:13:30;;;;;;;6.47;3.30;;;15.90;90.60;;;;;;4940843;28;20509;-84
2022/07/08 03:16:03;;;;;;;6.20;3.20;;;15.80;90.70;;;;;;4940010;29;20537;-84
2022/07/08 03:18:33;;;;;;;5.07;3.50;;;15.80;90.80;;;;;;4951115;28;20458;-83
2022/07/08 03:21:04;;;;;;;6.27;2.97;;;15.80;90.90;;;;;;4952373;29;20474;-83
2022/07/08 03:23:33;;;;;;;5.07;3.63;;;15.80;90.90;;;;;;4947052;29;20450;-84
2022/07/08 03:26:02;;;;;;;9.47;3.90;;;15.70;91.00;;;;;;4951742;29;20454;-83
2022/07/08 03:28:35;;;;;;;6.67;3.40;;;15.60;91.20;;;;;;4944322;28;20473;-84
2022/07/08 03:31:03;;;;;;;5.37;3.10;;;15.60;91.40;;;;;;4944864;29;20485;-83
2022/07/08 03:33:30;;;;;;;6.77;4.03;;;15.60;91.50;;;;;;4955858;29;20438;-84
2022/07/08 03:35:56;;;;;;;5.43;3.23;;;15.60;91.70;;;;;;4948765;29;20443;-84
2022/07/08 03:38:26;;;;;;;5.53;3.37;;;15.60;91.60;;;;;;4943974;28;20526;-84
2022/07/08 03:43:41;;;;;;;11.23;4.50;;;15.60;91.80;;;;;;4943428;29;20446;-83
2022/07/08 03:46:11;;;;;;;10.50;3.20;;;15.60;91.70;;;;;;4943419;28;20458;-83
2022/07/08 03:48:42;;;;;;;8.90;3.40;;;15.60;91.90;;;;;;4942502;28;20510;-84
2022/07/08 03:51:15;;;;;;;5.60;3.27;;;15.50;91.90;;;;;;4941430;28;20489;-84
2022/07/08 03:53:43;;;;;;;6.57;3.00;;;15.50;91.90;;;;;;4941560;29;20470;-84
2022/07/08 03:56:10;;;;;;;7.20;3.07;;;15.60;91.90;;;;;;4941906;29;20454;-83
2022/07/08 03:58:50;;;;;;;9.13;3.47;;;15.60;91.80;;;;;;4942291;29;20442;-84
2022/07/08 04:01:20;;;;;;;10.17;4.23;;;15.60;91.90;;;;;;4941241;29;20497;-84
2022/07/08 04:03:48;;;;;;;6.33;3.17;;;15.70;92.00;;;;;;4941872;28;20447;-84
2022/07/08 04:06:16;;;;;;;5.00;2.77;;;15.70;91.90;;;;;;4941268;28;20577;-84
2022/07/08 04:08:45;;;;;;;4.23;3.83;;;15.60;92.30;;;;;;4942308;28;20937;-84
2022/07/08 04:11:13;;;;;;;6.07;3.30;;;15.70;92.00;;;;;;4941780;29;20485;-84
2022/07/08 04:13:40;;;;;;;6.60;3.53;;;15.80;92.10;;;;;;4940861;29;20462;-84
2022/07/08 04:16:12;;;;;;;5.63;3.30;;;15.70;92.10;;;;;;4940324;29;20446;-84
2022/07/08 04:18:41;;;;;;;11.57;4.30;;;15.70;92.10;;;;;;4941319;29;20457;-85
2022/07/08 04:21:12;;;;;;;5.33;3.30;;;15.70;92.00;;;;;;4946308;28;20470;-84
2022/07/08 04:23:40;;;;;;;6.83;3.17;;;15.80;91.90;;;;;;4945051;28;20456;-85
2022/07/08 04:26:07;;;;;;;8.13;3.50;;;15.90;91.70;;;;;;4943699;28;20458;-85
2022/07/08 04:28:34;;;;;;;11.90;3.63;;;16.00;91.40;;;;;;4943022;29;20454;-84
2022/07/08 04:31:05;;;;;;;8.70;3.70;;;16.10;91.20;;;;;;4942253;28;20474;-84
2022/07/08 04:33:34;;;;;;;7.33;4.17;;;16.20;90.90;;;;;;4943095;28;20465;-83
2022/07/08 04:36:03;;;;;;;5.20;3.30;;;16.20;90.70;;;;;;4941379;28;20454;-83
2022/07/08 04:38:29;;;;;;;5.93;4.27;;;16.20;90.80;;;;;;4942747;29;20449;-84
2022/07/08 04:40:56;;;;;;;6.97;3.80;;;16.20;90.70;;;;;;4944159;29;20993;-83
2022/07/08 04:43:23;;;;;;;8.43;3.50;;;16.10;90.70;;;;;;4942106;29;20450;-83
2022/07/08 04:45:49;;;;;;;7.03;3.23;;;16.20;90.50;;;;;;4940931;29;20982;-83
2022/07/08 04:48:16;;;;;;;6.87;3.40;;;16.20;90.50;;;;;;4942836;29;20862;-83
2022/07/08 04:50:43;;;;;;;15.17;3.80;;;16.10;90.70;;;;;;4941210;29;20481;-83
2022/07/08 04:53:11;;;;;;;7.83;3.30;;;16.10;90.60;;;;;;4944321;29;20450;-83
2022/07/08 04:55:38;;;;;;;7.40;3.33;;;16.10;90.60;;;;;;4954155;29;20446;-83
2022/07/08 04:58:05;;;;;;;8.73;3.63;;;16.20;90.60;;;;;;4953644;29;20445;-83
2022/07/08 05:00:38;;;;;;;6.53;3.50;;;16.10;90.70;;;;;;4951139;29;20492;-83
2022/07/08 05:03:05;;;;;;;6.50;2.43;;;16.20;90.80;;;;;;4943861;28;20481;-83
2022/07/08 05:05:33;;;;;;;7.10;3.20;;;16.20;90.40;;;;;;4942120;29;20438;-84
2022/07/08 05:08:03;;;;;;;6.63;2.60;;;16.20;90.10;;;;;;4950336;29;20442;-84
2022/07/08 05:10:35;;;;;;;12.17;4.10;;;16.20;90.00;;;;;;4949367;28;20488;-85
2022/07/08 05:13:05;;;;;;;13.67;3.90;;;16.20;90.20;;;;;;4947855;29;20449;-84
2022/07/08 05:15:32;;;;;;;7.30;3.37;;;16.30;89.90;;;;;;4946402;29;20458;-84
2022/07/08 05:17:59;;;;;;;4.37;3.30;;;16.30;89.90;;;;;;4953731;29;20450;-84
2022/07/08 05:20:27;;;;;;;7.03;2.70;;;16.50;90.00;;;;;;4955030;29;20490;-84
2022/07/08 05:22:54;;;;;;;10.57;3.20;;;16.90;88.60;;;;;;4949562;29;20462;-84
2022/07/08 05:25:21;;;;;;;10.77;3.07;;;17.60;85.40;;;;;;4948048;29;20477;-83
2022/07/08 05:27:49;;;;;;;6.50;3.87;;;18.30;82.70;;;;;;4945758;29;20939;-83
2022/07/08 05:30:20;;;;;;;13.60;5.17;;;18.90;79.80;;;;;;4946312;29;20462;-83
2022/07/08 05:32:48;;;;;;;6.77;3.60;;;19.60;76.50;;;;;;4946308;28;20533;-83
2022/07/08 05:35:17;;;;;;;5.83;2.20;;;20.30;73.20;;;;;;4944828;28;20462;-83
2022/07/08 05:37:48;;;;;;;4.27;2.53;;;20.80;70.90;;;;;;4945925;28;20466;-84
2022/07/08 05:40:15;;;;;;;5.43;2.53;;;21.20;68.50;;;;;;4943771;29;20489;-84
2022/07/08 05:42:42;;;;;;;6.70;2.23;;;21.50;67.00;;;;;;4941158;29;20453;-81
2022/07/08 05:45:11;;;;;;;6.20;3.10;;;21.90;65.70;;;;;;4937885;29;20470;-83
2022/07/08 05:47:43;;;;;;;6.83;2.30;;;22.20;63.70;;;;;;4936513;29;20442;-83
2022/07/08 05:50:11;;;;;;;6.10;2.30;;;22.40;63.70;;;;;;4940425;28;20513;-89
2022/07/08 05:52:40;;;;;;;7.93;2.90;;;22.70;62.50;;;;;;4937869;29;20897;-83
2022/07/08 05:55:09;;;;;;;5.47;2.30;;;23.10;61.20;;;;;;4934663;29;20450;-83
2022/07/08 05:57:36;;;;;;;5.90;2.43;;;23.40;59.70;;;;;;4939316;29;20469;-84
2022/07/08 06:00:08;;;;;;;7.73;2.90;;;23.60;59.20;;;;;;4939809;29;21035;-84
2022/07/08 06:02:37;;;;;;;4.00;2.27;;;23.90;58.50;;;;;;4938218;29;20461;-87
2022/07/08 06:05:04;;;;;;;4.80;2.50;;;24.40;57.90;;;;;;4938101;29;20502;-87
2022/07/08 06:07:32;;;;;;;5.23;2.43;;;24.30;57.10;;;;;;4958782;29;20490;-85
2022/07/08 06:10:00;;;;;;;6.13;3.00;;;24.40;57.00;;;;;;4949539;29;20449;-86
2022/07/08 06:12:27;;;;;;;4.30;2.30;;;24.80;56.60;;;;;;4939675;29;20446;-87
2022/07/08 06:14:53;;;;;;;6.70;2.50;;;24.90;55.50;;;;;;4936911;28;20447;-86
2022/07/08 06:17:20;;;;;;;7.87;3.13;;;25.00;55.70;;;;;;4949241;29;20459;-87
2022/07/08 06:19:48;;;;;;;6.63;2.67;;;25.00;55.20;;;;;;4937343;29;20822;-87
2022/07/08 06:22:15;;;;;;;7.13;2.77;;;25.50;54.70;;;;;;4938306;29;20481;-87
2022/07/08 06:24:41;;;;;;;7.77;2.83;;;25.90;53.60;;;;;;4936584;29;20460;-86
2022/07/08 06:27:08;;;;;;;4.40;1.97;;;26.40;52.40;;;;;;4936181;29;20457;-87
2022/07/08 06:29:35;;;;;;;5.07;2.13;;;26.90;50.70;;;;;;4936290;29;20946;-88
2022/07/08 06:32:02;;;;;;;5.90;2.10;;;27.60;50.00;;;;;;4939223;29;20473;-87
2022/07/08 06:34:28;;;;;;;5.13;1.80;;;27.80;48.70;;;;;;4938448;29;20442;-87
2022/07/08 06:36:56;;;;;;;6.80;2.20;;;27.80;47.80;;;;;;4937679;29;20473;-87
2022/07/08 06:39:23;;;;;;;4.27;2.00;;;28.20;47.00;;;;;;4940294;29;20945;-87
2022/07/08 06:41:50;;;;;;;4.73;2.30;;;28.20;46.60;;;;;;4939386;29;20468;-87
2022/07/08 06:44:16;;;;;;;7.30;2.30;;;27.60;46.80;;;;;;4959544;29;20454;-85
2022/07/08 06:46:43;;;;;;;4.60;1.63;;;26.80;47.90;;;;;;4953873;29;20446;-87
2022/07/08 06:49:10;;;;;;;5.73;1.90;;;27.00;47.80;;;;;;4938661;29;20448;-88
2022/07/08 06:51:36;;;;;;;4.07;2.40;;;27.40;46.80;;;;;;4938821;29;20489;-87
2022/07/08 06:56:49;;;;;;;5.03;2.17;;;28.90;44.70;;;;;;4950596;29;20585;-87
2022/07/08 06:59:16;;;;;;;5.40;2.20;;;28.50;44.10;;;;;;4938732;29;20439;-86
2022/07/08 07:01:43;;;;;;;3.80;1.77;;;28.00;44.60;;;;;;4939069;29;20499;-87
2022/07/08 07:04:10;;;;;;;5.50;2.00;;;27.90;44.40;;;;;;4937818;29;20460;-87
2022/07/08 07:06:37;;;;;;;3.73;1.83;;;26.80;44.80;;;;;;4938502;29;20457;-86
2022/07/08 07:09:06;;;;;;;4.03;1.70;;;26.00;46.30;;;;;;4938362;29;20901;-85
2022/07/08 07:11:32;;;;;;;6.37;2.63;;;25.90;46.70;;;;;;4941175;29;20474;-86
2022/07/08 07:14:01;;;;;;;4.20;2.37;;;26.00;46.50;;;;;;4936675;29;20454;-88
2022/07/08 07:16:28;;;;;;;5.17;2.07;;;25.70;46.50;;;;;;4936425;29;20542;-87
2022/07/08 07:18:54;;;;;;;5.97;2.00;;;24.20;48.70;;;;;;4942578;29;20454;-87
2022/07/08 07:21:21;;;;;;;5.50;1.80;;;23.60;50.30;;;;;;4958190;29;20497;-85
2022/07/08 07:23:48;;;;;;;3.73;1.50;;;24.00;50.70;;;;;;4947427;29;20450;-87
2022/07/08 07:26:16;;;;;;;4.57;1.70;;;25.60;49.10;;;;;;4936307;29;20458;-88
2022/07/08 07:28:42;;;;;;;5.90;1.93;;;27.00;46.00;;;;;;4936019;29;20464;-87
2022/07/08 07:31:09;;;;;;;4.03;1.80;;;26.60;44.70;;;;;;4938424;29;20479;-87
2022/07/08 07:33:36;;;;;;;3.27;2.13;;;26.00;46.00;;;;;;4938949;29;20461;-88
2022/07/08 07:36:03;;;;;;;5.37;1.60;;;25.90;46.40;;;;;;4937438;29;20445;-87
2022/07/08 07:38:30;;;;;;;5.97;1.93;;;25.10;47.30;;;;;;4949618;23;20502;-88
2022/07/08 07:40:56;;;;;;;6.83;2.43;;;23.80;48.50;;;;;;4937672;29;20486;-87
2022/07/08 07:43:24;;;;;;;3.90;1.83;;;22.80;50.50;;;;;;4937591;29;20970;-88
2022/07/08 07:45:51;;;;;;;5.13;1.90;;;22.80;51.90;;;;;;4936788;29;20446;-87
2022/07/08 07:48:18;;;;;;;3.83;2.00;;;22.70;51.70;;;;;;4947281;29;20470;-87
2022/07/08 07:50:45;;;;;;;4.47;1.77;;;22.70;52.10;;;;;;4951373;29;20446;-88
2022/07/08 07:53:12;;;;;;;3.80;1.67;;;22.70;52.40;;;;;;4938318;29;20824;-88
2022/07/08 07:55:39;;;;;;;4.97;1.90;;;22.70;51.60;;;;;;4941965;29;20465;-87
2022/07/08 07:58:06;;;;;;;6.70;1.93;;;22.70;51.60;;;;;;4956626;29;20454;-87
2022/07/08 08:00:34;;;;;;;5.40;2.73;;;22.70;51.60;;;;;;4949787;29;20477;-88
2022/07/08 08:09:53;;;;;;;4.87;2.30;;;22.60;52.00;;;;;;4910079;29;20464;-93
2022/07/08 09:01:55;;;;;;;4.00;1.70;;;24.80;47.30;;;;;;4781328;29;20488;-91
2022/07/08 09:05:50;;;;;;;3.50;1.50;;;27.10;45.40;;;;;;4802953;29;20520;-91
2022/07/08 09:59:55;;;;;;;5.87;1.90;;;32.40;35.10;;;;;;4710645;30;20511;-92
2022/07/08 10:21:06;;;;;;;5.73;1.63;;;38.10;27.70;;;;;;4754576;29;20459;-94
2022/07/08 10:27:15;;;;;;;5.43;1.73;;;36.10;28.60;;;;;;4892587;29;20479;-93
2022/07/08 10:37:01;;;;;;;2.57;1.70;;;35.10;30.00;;;;;;4857515;29;20443;-91
2022/07/08 10:43:07;;;;;;;3.70;2.00;;;32.50;32.80;;;;;;4915634;28;20529;-91
2022/07/08 10:46:19;;;;;;;5.17;1.30;;;33.00;32.50;;;;;;4958419;29;20433;-91
2022/07/08 10:48:58;;;;;;;2.70;1.40;;;31.80;33.50;;;;;;4941154;28;20476;-91
2022/07/08 10:52:35;;;;;;;4.93;1.47;;;32.40;33.00;;;;;;4951004;29;20446;-91
2022/07/08 10:55:48;;;;;;;3.47;2.03;;;33.10;32.40;;;;;;4949586;29;20497;-92
2022/07/08 10:58:54;;;;;;;3.17;1.70;;;32.90;32.20;;;;;;4950881;29;20474;-92
2022/07/08 11:01:41;;;;;;;4.57;1.67;;;34.00;31.40;;;;;;4931369;29;20561;-91
2022/07/08 11:08:44;;;;;;;5.80;2.60;;;34.80;29.30;;;;;;4926437;29;20477;-91
2022/07/08 11:15:06;;;;;;;3.20;1.70;;;34.60;30.40;;;;;;4771846;29;20484;-93
2022/07/08 11:18:00;;;;;;;2.77;1.40;;;34.40;30.60;;;;;;4947614;28;20476;-92
2022/07/08 11:21:24;;;;;;;2.63;1.20;;;35.20;30.20;;;;;;4945220;28;20457;-92
2022/07/08 11:24:19;;;;;;;2.33;1.30;;;36.10;28.80;;;;;;4948796;28;20473;-93
2022/07/08 11:30:30;;;;;;;1.80;1.10;;;35.30;28.70;;;;;;4945159;29;20456;-92
2022/07/08 11:32:58;;;;;;;6.23;1.87;;;34.80;29.90;;;;;;4945359;29;20450;-92
2022/07/08 11:35:31;;;;;;;3.67;1.57;;;36.60;29.30;;;;;;4940215;29;20439;-92
2022/07/08 11:38:17;;;;;;;3.30;1.40;;;37.40;28.30;;;;;;4940222;29;20457;-92
2022/07/08 11:41:20;;;;;;;;;;;;;;;;;;;;;
2022/07/08 11:43:57;;;;;;;3.53;1.77;;;37.50;27.40;;;;;;4897617;29;20969;-93
2022/07/08 11:46:26;;;;;;;3.50;1.50;;;38.20;27.20;;;;;;4953551;29;20517;-93
2022/07/08 11:49:06;;;;;;;;;;;;;;;;;;;;;
2022/07/08 11:51:34;;;;;;;4.77;1.70;;;36.40;28.00;;;;;;4950419;29;20445;-92
2022/07/08 11:54:20;;;;;;;4.30;2.00;;;36.00;28.30;;;;;;4959655;29;20509;-94
2022/07/08 11:59:41;;;;;;;3.10;1.30;;;37.10;28.00;;;;;;4941565;28;20605;-92
2022/07/08 12:02:12;;;;;;;2.07;1.07;;;37.10;27.40;;;;;;4960137;28;20492;-93
2022/07/08 12:04:45;;;;;;;2.80;1.73;;;36.80;27.20;;;;;;4952218;28;20777;-92
2022/07/08 12:07:36;;;;;;;3.67;1.63;;;34.90;28.50;;;;;;4946334;29;20480;-92
2022/07/08 12:10:12;;;;;;;3.53;1.47;;;34.90;29.50;;;;;;4942533;28;20503;-92
2022/07/08 12:12:57;;;;;;;4.37;1.67;;;36.20;28.80;;;;;;4943973;28;20820;-92
2022/07/08 12:15:35;;;;;;;2.37;1.73;;;36.30;28.30;;;;;;4948312;28;20443;-92
2022/07/08 12:18:08;;;;;;;4.53;1.80;;;36.10;28.30;;;;;;4962273;28;20509;-93
2022/07/08 12:21:25;;;;;;;2.80;1.17;;;36.20;28.00;;;;;;4957022;28;20468;-92
2022/07/08 12:24:12;;;;;;;3.63;1.47;;;37.80;27.70;;;;;;4945282;29;20821;-91
2022/07/08 12:27:04;;;;;;;4.60;1.93;;;37.10;27.20;;;;;;4959693;29;20524;-92
2022/07/08 12:30:07;;;;;;;3.33;1.70;;;37.70;27.20;;;;;;4959320;29;20444;-92
2022/07/08 12:33:39;;;;;;;4.53;1.40;;;35.70;28.60;;;;;;4953833;29;20456;-92
2022/07/08 12:36:46;;;;;;;3.50;1.80;;;36.00;28.10;;;;;;4823162;28;20491;-92
2022/07/08 12:40:00;;;;;;;2.67;1.30;;;36.00;28.00;;;;;;4942347;29;20496;-92
2022/07/08 12:43:06;;;;;;;2.63;1.30;;;36.20;28.10;;;;;;4950349;29;20480;-92
2022/07/08 12:46:07;;;;;;;2.20;1.00;;;35.80;27.90;;;;;;4956488;28;20541;-93
2022/07/08 12:49:22;;;;;;;2.60;1.57;;;35.40;27.90;;;;;;4968104;28;20469;-92
2022/07/08 12:55:19;;;;;;;3.40;1.27;;;37.50;27.30;;;;;;4942539;29;20445;-93
2022/07/08 12:57:59;;;;;;;2.77;1.60;;;36.70;27.60;;;;;;4953802;28;20483;-92
2022/07/08 13:00:56;;;;;;;3.23;1.50;;;37.10;27.60;;;;;;4955947;28;20660;-92
2022/07/08 13:03:28;;;;;;;5.07;1.50;;;36.60;27.70;;;;;;4944025;29;20480;-91
2022/07/08 13:06:31;;;;;;;5.80;1.77;;;36.60;27.90;;;;;;4959593;28;20451;-92
2022/07/08 13:19:23;;;;;;;2.13;1.13;;;36.80;27.80;;;;;;4921933;29;20477;-92
2022/07/08 13:22:09;;;;;;;3.97;1.50;;;37.10;27.40;;;;;;4952456;28;20482;-92
2022/07/08 13:24:48;;;;;;;3.33;1.50;;;36.90;27.80;;;;;;4946436;29;20447;-92
2022/07/08 13:27:40;;;;;;;3.80;1.83;;;38.20;27.10;;;;;;4962627;28;20464;-92
2022/07/08 13:30:32;;;;;;;3.37;1.47;;;39.30;25.80;;;;;;4947470;28;20543;-91
2022/07/08 13:33:07;;;;;;;4.53;1.40;;;38.30;26.30;;;;;;4946777;29;20467;-92
2022/07/08 13:35:39;;;;;;;3.70;2.17;;;38.50;26.20;;;;;;4957325;28;20965;-91
2022/07/08 13:38:10;;;;;;;5.57;2.47;;;37.20;26.80;;;;;;4962022;28;20461;-90
2022/07/08 13:40:43;;;;;;;5.10;1.83;;;35.80;28.10;;;;;;4948907;28;20441;-91
2022/07/08 13:43:20;;;;;;;5.00;1.50;;;35.10;29.10;;;;;;4955920;28;20486;-91
2022/07/08 13:45:59;;;;;;;2.57;1.40;;;35.20;28.90;;;;;;4957322;29;20637;-90
2022/07/08 13:51:16;;;;;;;2.90;1.57;;;36.90;27.70;;;;;;4946394;29;20536;-91
2022/07/08 13:53:42;;;;;;;2.93;1.30;;;36.70;27.40;;;;;;4968993;23;20446;-83
2022/07/08 13:56:09;;;;;;;5.37;1.90;;;37.00;27.90;;;;;;4958921;29;20458;-84
2022/07/08 13:58:37;;;;;;;4.43;2.00;;;36.10;27.70;;;;;;4948475;28;20443;-84
2022/07/08 14:01:10;;;;;;;5.83;2.10;;;36.40;28.20;;;;;;4966804;28;20459;-84
2022/07/08 14:03:40;;;;;;;4.67;1.90;;;36.30;27.90;;;;;;4953904;28;20498;-83
2022/07/08 14:12:11;;;;;;;;;;;;;;;;;;;;;
2022/07/08 14:14:41;;;;;;;4.50;1.60;;;35.30;28.90;;;;;;5088317;23;20497;-83
2022/07/08 14:17:18;;;;;;;2.80;1.30;;;35.70;28.50;;;;;;4946025;29;20805;-84
2022/07/08 14:23:07;;;;;;;3.37;1.47;;;34.40;29.10;;;;;;4961640;28;20584;-82
2022/07/08 14:25:50;;;;;;;4.63;2.60;;;33.70;30.00;;;;;;4935356;29;20525;-83
2022/07/08 14:31:26;;;;;;;2.67;1.50;;;33.10;31.00;;;;;;4945939;29;20450;-84
2022/07/08 14:39:57;;;;;;;2.53;1.43;;;30.90;33.10;;;;;;4935851;29;20461;-84
2022/07/08 14:42:24;;;;;;;5.67;1.70;;;29.70;34.60;;;;;;4939794;29;20859;-83
2022/07/08 14:44:53;;;;;;;2.83;1.60;;;28.90;36.10;;;;;;4941439;28;20849;-84
2022/07/08 14:47:21;;;;;;;3.03;1.50;;;28.00;36.80;;;;;;4943544;29;21428;-83
2022/07/08 14:49:50;;;;;;;4.13;1.60;;;27.20;38.60;;;;;;4941363;29;20459;-83
2022/07/08 14:52:17;;;;;;;2.30;1.93;;;26.50;40.30;;;;;;4944542;29;20438;-83
2022/07/08 14:54:43;;;;;;;5.63;1.70;;;26.30;41.30;;;;;;4941018;29;20472;-84
2022/07/08 14:57:10;;;;;;;4.20;2.20;;;26.10;42.00;;;;;;4940807;29;20448;-84
2022/07/08 14:59:37;;;;;;;3.03;1.80;;;26.00;42.50;;;;;;4942990;29;20443;-85
2022/07/08 15:02:04;;;;;;;4.10;1.57;;;26.00;42.40;;;;;;4941338;29;20488;-84
2022/07/08 15:04:31;;;;;;;6.13;2.27;;;25.80;42.90;;;;;;4940666;28;20470;-83
2022/07/08 15:06:59;;;;;;;2.83;2.10;;;25.60;43.10;;;;;;4937966;29;20939;-82
2022/07/08 15:09:26;;;;;;;3.90;1.70;;;25.70;43.50;;;;;;4940064;29;20443;-83
2022/07/08 15:11:52;;;;;;;8.07;2.23;;;25.70;43.60;;;;;;4938427;29;20449;-83
2022/07/08 15:14:19;;;;;;;3.33;1.67;;;25.50;44.50;;;;;;4939224;28;20524;-83
2022/07/08 15:16:46;;;;;;;3.07;1.67;;;25.50;44.10;;;;;;4942667;29;20457;-82
2022/07/08 15:19:13;;;;;;;6.10;2.03;;;25.60;43.70;;;;;;4944707;29;20478;-83
2022/07/08 15:21:40;;;;;;;4.00;1.70;;;25.50;43.10;;;;;;4949953;29;20447;-82
2022/07/08 15:24:09;;;;;;;4.33;1.60;;;25.60;42.80;;;;;;4955959;29;20486;-84
2022/07/08 15:26:36;;;;;;;4.83;1.77;;;25.60;43.20;;;;;;4952014;29;20522;-83
2022/07/08 15:29:03;;;;;;;4.80;2.10;;;25.50;43.70;;;;;;4951960;29;20446;-83
2022/07/08 15:31:29;;;;;;;3.50;2.03;;;25.50;44.10;;;;;;4947362;29;20427;-83
2022/07/08 15:33:56;;;;;;;5.47;1.97;;;25.60;44.30;;;;;;4943706;29;20449;-83
2022/07/08 15:36:23;;;;;;;7.83;2.00;;;25.60;44.30;;;;;;4943502;29;20453;-83
2022/07/08 15:38:50;;;;;;;3.70;1.93;;;25.60;44.10;;;;;;4941553;29;20442;-84
2022/07/08 15:41:18;;;;;;;4.00;3.07;;;25.60;44.00;;;;;;4940670;29;20482;-84
2022/07/08 15:43:44;;;;;;;6.77;1.90;;;25.60;44.00;;;;;;4940034;29;20509;-83
2022/07/08 15:46:11;;;;;;;4.13;1.70;;;25.60;44.00;;;;;;4940262;29;20481;-84
2022/07/08 15:48:38;;;;;;;3.93;1.67;;;25.50;43.70;;;;;;4941686;29;20449;-83
2022/07/08 15:51:05;;;;;;;6.90;2.00;;;25.50;43.30;;;;;;4941071;29;20442;-83
2022/07/08 15:53:31;;;;;;;2.40;1.40;;;25.50;43.30;;;;;;4941900;29;20442;-83
2022/07/08 15:55:58;;;;;;;2.87;1.70;;;25.50;43.00;;;;;;4941083;29;20482;-83
2022/07/08 15:58:27;;;;;;;1.87;1.47;;;25.50;43.10;;;;;;4940317;29;20526;-83
2022/07/08 16:00:53;;;;;;;3.73;1.80;;;25.40;43.40;;;;;;4934909;29;20455;-83
2022/07/08 16:03:20;;;;;;;3.40;1.97;;;25.40;43.70;;;;;;4941487;29;20485;-84
2022/07/08 16:05:47;;;;;;;3.30;1.77;;;25.40;43.90;;;;;;4957898;29;20465;-83
2022/07/08 16:08:14;;;;;;;4.23;1.47;;;25.20;43.40;;;;;;4945094;29;20449;-84
2022/07/08 16:10:40;;;;;;;3.60;1.87;;;25.20;43.60;;;;;;4932722;29;20935;-84
2022/07/08 16:13:07;;;;;;;3.73;2.50;;;25.20;43.60;;;;;;4934087;29;20446;-83
2022/07/08 16:15:35;;;;;;;2.70;1.67;;;25.10;44.40;;;;;;4936473;29;20478;-84
2022/07/08 16:18:02;;;;;;;2.20;2.00;;;24.80;43.90;;;;;;4936715;29;20438;-84
2022/07/08 16:20:30;;;;;;;3.20;1.60;;;24.60;44.50;;;;;;4946543;29;21215;-84
2022/07/08 16:22:57;;;;;;;3.13;1.47;;;24.60;45.00;;;;;;4953125;28;21223;-83
2022/07/08 16:25:24;;;;;;;4.40;1.90;;;24.60;45.00;;;;;;4938400;29;20466;-84
2022/07/08 16:27:51;;;;;;;2.60;1.63;;;24.80;45.20;;;;;;4931863;29;20450;-84
2022/07/08 16:30:17;;;;;;;3.57;2.00;;;24.80;45.20;;;;;;4934673;28;20943;-83
2022/07/08 16:32:45;;;;;;;4.83;1.60;;;24.80;45.30;;;;;;4935217;29;20438;-84